Flight Track Log - Related Links

Times and Time Zones

All times are in EDT time to prevent confusion due to time zone crossing. See the KAP305 flight status page for this flight to view local times or setup timezone preferences in your user account.

Time Position Orientation Groundspeed Altitude Reporting Facility
EDT Latitude Longitude Course Direction KTS MPH feet Rate Location/Type
Mon 03:59:46 PM 42.3500 -70.9833 124° Southeast 120 138 500  Level KA90
Mon 04:00:46 PM 42.3333 -70.9500 124° Southeast 111 128 1,100 550 Climbing KA90
Mon 04:01:46 PM 42.3167 -70.9167 124° Southeast 112 129 1,600 550 Climbing KA90
Mon 04:02:46 PM 42.3000 -70.8833 124° Southeast 119 137 2,200 550 Climbing KA90
Mon 04:03:46 PM 42.2833 -70.8500 124° Southeast 117 135 2,700 550 Climbing KA90
Mon 04:04:46 PM 42.2500 -70.8333 160° South 121 139 3,300 600 Climbing KA90
Mon 04:06:00 PM 42.2632 -70.7672 75° East  Level FlightAware Approximate
Mon 04:13:00 PM 42.0087 -70.5867 116° Southeast  Level Estimated
Mon 04:14:00 PM 41.9723 -70.5610 114° Southeast  Level Estimated
Mon 04:15:00 PM 41.9770 -70.5061 83° East  Level FlightAware Approximate
Mon 04:16:00 PM 41.9817 -70.4512 83° East  Level FlightAware Approximate
Mon 04:17:00 PM 41.9864 -70.3963 83° East  Level FlightAware Approximate
Mon 04:18:00 PM 41.9911 -70.3413 83° East  Level FlightAware Approximate
Mon 04:19:00 PM 41.9957 -70.2864 84° East  Level FlightAware Approximate
Mon 04:20:00 PM 42.0003 -70.2315 84° East  Level FlightAware Approximate
Mon 04:21:00 PM 41.9598 -70.2221 180° South  Level Estimated
Mon 04:22:00 PM 41.9215 -70.2019 159° South  Level FlightAware Approximate
Mon 04:23:00 PM 41.8833 -70.1818 159° South  Level FlightAware Approximate
Mon 04:24:00 PM 41.8450 -70.1616 159° South  Level FlightAware Approximate
Mon 04:25:00 PM 41.8068 -70.1415 159° South  Level FlightAware Approximate
Mon 04:26:00 PM 41.7685 -70.1215 159° South  Level FlightAware Approximate
Mon 04:27:00 PM 41.7302 -70.1014 159° South  Level FlightAware Approximate
Mon 04:28:00 PM 41.6920 -70.0814 159° South  Level FlightAware Approximate
Mon 04:29:00 PM 41.6537 -70.0613 159° South  Level FlightAware Approximate
Mon 04:30:00 PM 41.6154 -70.0414 159° South  Level FlightAware Approximate
Mon 04:31:00 PM 41.5784 -70.0377 189° South  Level FlightAware Approximate
Mon 04:32:00 PM 41.5378 -70.0458 189° South  Level FlightAware Approximate
Mon 04:33:00 PM 41.4969 -70.0500 180° South  Level FlightAware Approximate
Mon 04:34:00 PM 41.4559 -70.0500 180° South  Level FlightAware Approximate
Mon 04:35:00 PM 41.4148 -70.0500 180° South  Level FlightAware Approximate
Mon 04:36:00 PM 41.3737 -70.0500 180° South  Level FlightAware Approximate
Mon 04:37:00 PM 41.3326 -70.0500 180° South  Level FlightAware Approximate
Mon 04:38:00 PM 41.2915 -70.0500 180° South  Level FlightAware Approximate
Mon 04:39:00 PM 41.2504 -70.0500 180° South  Level FlightAware Approximate
Mon 04:40:00 PM 41.2500 -70.0500 180° South  Level FlightAware Approximate
Mon 04:41:00 PM 41.2531 -70.0603 180° South  Level Estimated
Mon 04:42:00 PM 41.2531 -70.0603 180° South  Level Estimated

Login

Don't have an account? Register now (free) for customized features, flight alerts, and more!